Saltillo, Texas
Current Conditions -  °F | °C
As of 6:55 AM on Friday 24 Oct 2014 (Local Time) from KSLR Reporting Station
Scattered Clouds Scattered Clouds  
Wind Chill: 53°   Ceiling: Unl
Heat Index: 53°   Visibility: 10mi
Dew Point: 52°   Wind: 5mph
Humidity: 97%   Direction: 120°ESE
Pressure: 30.17"   Gusts: NA
Location:  33.18°N, 95.33°W
Report Text: KSLR 241155Z AUTO 12004KT 10SM SCT055 12/11 A3017 RMK AO2 T01180113 10152 20116
Loading
Personal Weather Stations






























Interactive Weather Map New forecast layout! Learn more

10-Day Weather Forecast

Advertisements
Track Severe Weather on mobile